Forside
METAR-TAF:

METAR-TAF

Lufthavne :

Balkhash, Kasakhstan

Breddekreds: 46-53-38N, længdekreds: 075-00-19E, højde: 440 m

Aktuelle vejr

Denne rapport blev lavet for 16 timer og 21 minutter siden, kl. 11:00 UTC
Vind 4 kt fra syd
Temperatur -6°C
Fugtighed 73%
Tryk 1040 hPa
Sigt 10 km eller mere
ingen skyer under 1500m og ingen cumulonimbus

METAR: UAAH 161100Z 17002MPS CAVOK M06/M10 Q1040 NOSIG RMK QFE742/0989

Tid: 09:21 (03:21 UTC)

Vejrudsigter

Denne rapport blev lavet for 16 timer og 20 minutter siden, kl. 11:01 UTC
Foreløbig gælder fra 16 på 12 UTC til 16 på 21 UTC
Vind 4 kt fra varierende retninger
Sigt 10 km eller mere
ingen skyer under 1500m og ingen cumulonimbus

TAF: UAAH 161101Z 1612/1621 VRB02MPS CAVOK

Vejrobservationer og prognoser fra mere end 4000 lufthavne (METAR og TAF).

De gule og røde prikker repræsenterer de meteorologiske stationer.

Flyt musen over at se navnet på stationen.

Så klik over at se vejr observationer og prognoser.

At skifte det kort: Klik på de grønne knapper med et sort kors for at zoome ind; på den grønne knap med en bindestreg for at zoome ud; eller på de grønne pile for tilstødende kort.


METAR-TAF: